Flight Track Log - Related Links

Times and Time Zones

All times are in EDT time to prevent confusion due to time zone crossing. See the SWA4 flight status page for this flight to view local times or setup timezone preferences in your user account.

Time Position Orientation Groundspeed Altitude Reporting Facility
EDT Latitude Longitude Course Direction KTS MPH feet Rate Location/Type
08:06AM 29.6258 -95.2542 25° Northeast 173 199 1,100  Level Houston Center
08:07AM 29.6600 -95.2356 25° Northeast 196 226 3,000 2,031 Climbing Houston Center
08:08AM 29.6706 -95.2394 342° North 214 246 3,300 2,100 Climbing Houston Center
08:08AM 29.7186 -95.2814 323° Northwest 260 299 5,100 1,672 Climbing Houston Center
08:09AM 29.7264 -95.2861 332° Northwest 242 278 5,000 1,672 Descending Houston Center
08:09AM 29.7822 -95.3339 323° Northwest 289 333 6,800 2,226 Climbing Houston Center
08:10AM 29.7894 -95.3397 325° Northwest 276 318 7,300 2,877 Climbing Houston Center
08:11AM 29.8639 -95.3606 346° North 283 326 10,300 2,244 Climbing Houston Center
08:12AM 29.9531 -95.3750 352° North 322 371 11,900 2,129 Climbing Houston Center
08:13AM 30.0508 -95.3906 352° North 350 403 14,700 2,585 Climbing Houston Center
08:14AM 30.1500 -95.4081 351° North 359 413 17,200 2,244 Climbing Houston Center
08:15AM 30.2511 -95.4242 352° North 363 418 19,300 2,195 Climbing Houston Center
08:16AM 30.3761 -95.4464 351° North 375 432 21,700 2,081 Climbing Houston Center
08:17AM 30.4828 -95.4642 352° North 383 441 23,600 1,790 Climbing Houston Center
08:18AM 30.5900 -95.4869 350° North 388 447 25,400 1,672 Climbing Houston Center
08:19AM 30.6917 -95.5097 349° North 390 449 27,000 1,512 Climbing Houston Center
08:20AM 30.8011 -95.5347 349° North 394 453 28,500 1,210 Climbing Houston Center
08:21AM 30.9108 -95.5597 349° North 396 456 29,500 1,171 Climbing Houston Center
08:22AM 31.0481 -95.5914 349° North 409 471 30,900 1,122 Climbing Houston Center
08:23AM 31.1631 -95.6186 349° North 417 480 31,800 339 Climbing Houston Center
08:24AM 31.2722 -95.6433 349° North 404 465 31,600 -581 Descending Houston Center
08:25AM 31.3822 -95.6783 345° North 407 468 30,600 -872 Descending Houston Center
08:26AM 31.4664 -95.7358 330° Northwest 415 478 29,900 -1,026 Descending Fort Worth Center
08:27AM 31.5694 -95.8036 331° Northwest 426 490 28,600 -1,645 Descending Fort Worth Center
08:28AM 31.6906 -95.8869 330° Northwest 433 498 26,500 -2,468 Descending Fort Worth Center
08:29AM 31.7992 -95.9575 331° Northwest 435 501 23,500 -2,829 Descending Fort Worth Center
08:30AM 31.8981 -96.0239 330° Northwest 418 481 20,700 -2,780 Descending Fort Worth Center
08:31AM 32.0008 -96.0917 331° Northwest 407 468 17,800 -2,613 Descending Fort Worth Center
08:32AM 32.0950 -96.1581 329° Northwest 397 457 15,300 -2,177 Descending Fort Worth Center
08:33AM 32.1847 -96.2186 330° Northwest 378 435 13,300 -1,790 Descending Fort Worth Center
08:34AM 32.2828 -96.2756 334° Northwest 350 403 11,600 -1,355 Descending Fort Worth Center
08:35AM 32.3569 -96.3200 333° Northwest 299 344 10,500 -1,210 Descending Fort Worth Center
08:36AM 32.4358 -96.3683 333° Northwest 296 341 9,100 -919 Descending Fort Worth Center
08:37AM 32.5094 -96.4119 333° Northwest 296 341 8,600 -774 Descending Fort Worth Center
08:38AM 32.5853 -96.4586 333° Northwest 290 334 7,500 -1,000 Descending Fort Worth Center
08:40AM 32.7142 -96.5611 326° Northwest 281 323 5,500 -806 Descending Fort Worth Center
08:41AM 32.7767 -96.6278 318° Northwest 280 322 5,000 -677 Descending Fort Worth Center
08:42AM 32.8350 -96.6903 318° Northwest 280 322 4,100 -871 Descending Fort Worth Center
08:43AM 32.8972 -96.7536 319° Northwest 272 313 3,200 -532 Descending Fort Worth Center
08:44AM 32.9497 -96.8064 320° Northwest 249 287 3,000 -97 Descending Fort Worth Center
08:46AM 32.9733 -96.8700 294° West 209 241 3,000 -242 Level Fort Worth Center
08:47AM 32.9300 -96.9072 216° Southwest 192 221 2,500 -629 Descending Fort Worth Center
08:48AM 32.8903 -96.9172 192° South 161 185 1,700 -774 Descending Fort Worth Center
08:49AM 32.8658 -96.8803 128° Southeast 134 154 900 -532 Descending Fort Worth Center
08:50AM 32.8414 -96.8508 135° Southeast 135 155 600 -290 Descending Fort Worth Center

Login

Don't have an account? Register now (free) for customized features, flight alerts, and more!